Time;durP1;ratioP1;P1;durP2;ratioP2;P2;SDS_P1;SDS_P2;PMS_P1;PMS_P2;Temp;Humidity;BMP_temperature;BMP_pressure;BME280_temperature;BME280_humidity;BME280_pressure;Samples;Min_cycle;Max_cycle;Signal;HPM_P1;HPM_P2
2022/09/10 00:01:55;;;;;;;2.20;1.00;;;;;;;-144.22;100.00;60274.75;6104398;29;20456;-69
2022/09/10 00:05:01;;;;;;;1.50;0.67;;;;;;;-144.22;100.00;60274.75;6104043;29;20583;-69
2022/09/10 00:08:03;;;;;;;0.60;0.60;;;;;;;-144.22;100.00;60274.75;6090636;29;20232;-69
2022/09/10 00:11:09;;;;;;;2.20;0.90;;;;;;;-144.22;100.00;60274.75;6090340;29;20235;-69
2022/09/10 00:14:18;;;;;;;3.13;0.87;;;;;;;-144.22;100.00;60274.75;6090458;29;21116;-69
2022/09/10 00:17:20;;;;;;;1.77;0.67;;;;;;;-144.22;100.00;60274.75;6090011;29;20240;-69
2022/09/10 00:20:23;;;;;;;0.63;0.63;;;;;;;-144.22;100.00;60274.75;6089948;29;20553;-69
2022/09/10 00:23:27;;;;;;;0.80;0.60;;;;;;;-144.22;100.00;60274.75;6089157;29;21032;-69
2022/09/10 00:26:34;;;;;;;0.80;0.50;;;;;;;-144.22;100.00;60274.75;6089788;29;20582;-69
2022/09/10 00:29:37;;;;;;;0.60;0.53;;;;;;;-144.22;100.00;60274.75;6103044;29;20236;-69
2022/09/10 00:32:39;;;;;;;1.80;0.70;;;;;;;-144.22;100.00;60274.75;6104595;29;20239;-69
2022/09/10 00:35:41;;;;;;;0.60;0.60;;;;;;;-144.22;100.00;60274.75;6089374;29;20609;-69
2022/09/10 00:38:43;;;;;;;1.30;0.70;;;;;;;-144.22;100.00;60274.75;6104860;29;20239;-69
2022/09/10 00:41:47;;;;;;;0.83;0.60;;;;;;;-144.22;100.00;60274.75;6103638;29;20236;-69
2022/09/10 00:44:56;;;;;;;0.97;0.57;;;;;;;-144.22;100.00;60274.75;6103536;29;20727;-69
2022/09/10 00:48:03;;;;;;;1.03;0.70;;;;;;;-144.22;100.00;60274.75;6089357;29;20738;-69
2022/09/10 00:51:05;;;;;;;1.17;0.63;;;;;;;-144.22;100.00;60274.75;6088887;29;20231;-69
2022/09/10 00:54:08;;;;;;;0.77;0.60;;;;;;;-144.22;100.00;60274.75;6089493;29;20758;-69
2022/09/10 00:57:15;;;;;;;2.20;0.80;;;;;;;-144.22;100.00;60274.75;6087722;29;20659;-69
2022/09/10 01:04:55;;;;;;;2.17;0.70;;;;;;;-144.22;100.00;60274.75;6087059;29;20220;-69
2022/09/10 01:07:57;;;;;;;1.33;0.57;;;;;;;-144.22;100.00;60274.75;6089331;29;20234;-69
2022/09/10 01:11:22;;;;;;;0.90;0.53;;;;;;;-144.22;100.00;60274.75;6103709;29;20236;-69
2022/09/10 01:14:31;;;;;;;0.87;0.57;;;;;;;-144.22;100.00;60274.75;6081223;29;20228;-69
2022/09/10 01:17:38;;;;;;;1.53;1.00;;;;;;;-144.22;100.00;60274.75;6102752;29;20224;-69
2022/09/10 01:20:50;;;;;;;2.93;1.00;;;;;;;-144.22;100.00;60274.75;6088684;29;20236;-70
2022/09/10 01:24:07;;;;;;;3.10;1.20;;;;;;;-144.22;100.00;60274.75;6087880;29;20330;-69
2022/09/10 01:27:24;;;;;;;4.83;1.10;;;;;;;-144.22;100.00;60274.75;6103137;29;20618;-70
2022/09/10 01:30:33;;;;;;;4.83;1.60;;;;;;;-144.22;100.00;60274.75;6103046;29;20291;-69
2022/09/10 01:33:45;;;;;;;1.13;1.03;;;;;;;-144.22;100.00;60274.75;6103568;29;20247;-69
2022/09/10 01:36:52;;;;;;;1.33;1.23;;;;;;;-144.22;100.00;60274.75;6102919;29;20708;-69
2022/09/10 01:39:58;;;;;;;3.53;0.93;;;;;;;-144.22;100.00;60274.75;6087712;29;20239;-68
2022/09/10 01:43:06;;;;;;;1.30;1.07;;;;;;;-144.22;100.00;60274.75;6102724;29;20255;-69
2022/09/10 01:46:40;;;;;;;4.40;1.30;;;;;;;-144.22;100.00;60274.75;6101882;29;20343;-69
2022/09/10 01:50:07;;;;;;;1.57;1.20;;;;;;;-144.22;100.00;60274.75;6071442;29;20322;-69
2022/09/10 01:53:33;;;;;;;1.20;1.10;;;;;;;-144.22;100.00;60274.75;6079612;29;20243;-69
2022/09/10 01:57:08;;;;;;;3.20;1.30;;;;;;;-144.22;100.00;60274.75;6102146;29;20235;-69
2022/09/10 02:00:16;;;;;;;2.57;1.37;;;;;;;-144.22;100.00;60274.75;6087475;29;20236;-69
2022/09/10 02:03:23;;;;;;;2.20;1.57;;;;;;;-144.22;100.00;60274.75;6085251;29;20219;-69
2022/09/10 02:06:30;;;;;;;2.67;1.50;;;;;;;-144.22;100.00;60274.75;6080544;29;20237;-69
2022/09/10 02:09:34;;;;;;;3.80;2.20;;;;;;;-144.22;100.00;60274.75;6071603;29;20232;-69
2022/09/10 02:12:38;;;;;;;2.10;1.40;;;;;;;-144.22;100.00;60274.75;6085207;29;20231;-69
2022/09/10 02:16:13;;;;;;;3.30;1.70;;;;;;;-144.22;100.00;60274.75;6087477;29;20704;-69
2022/09/10 02:19:16;;;;;;;1.63;1.50;;;;;;;-144.22;100.00;60274.75;6087568;29;20243;-69
2022/09/10 02:22:23;;;;;;;2.73;1.20;;;;;;;-144.22;100.00;60274.75;6087351;29;20248;-69
2022/09/10 02:25:32;;;;;;;1.93;1.43;;;;;;;-144.22;100.00;60274.75;6087291;29;20243;-69
2022/09/10 02:28:37;;;;;;;1.73;1.37;;;;;;;-144.22;100.00;60274.75;6087282;29;20236;-69
2022/09/10 02:31:41;;;;;;;1.83;1.50;;;;;;;-144.22;100.00;60274.75;6087150;29;20343;-68
2022/09/10 02:34:45;;;;;;;4.23;1.30;;;;;;;-144.22;100.00;60274.75;6085345;29;20779;-69
2022/09/10 02:37:49;;;;;;;1.53;1.30;;;;;;;-144.22;100.00;60274.75;6088013;29;20706;-69
2022/09/10 02:40:51;;;;;;;3.90;1.63;;;;;;;-144.22;100.00;60274.75;6101216;29;20614;-69
2022/09/10 02:43:54;;;;;;;3.13;2.40;;;;;;;-144.22;100.00;60274.75;6086411;29;20235;-69
2022/09/10 02:46:57;;;;;;;2.20;1.63;;;;;;;-144.22;100.00;60274.75;6100508;29;20302;-69
2022/09/10 02:50:00;;;;;;;2.43;2.07;;;;;;;-144.22;100.00;60274.75;6087551;29;20267;-69
2022/09/10 02:53:03;;;;;;;2.40;1.83;;;;;;;-144.22;100.00;60274.75;6080083;29;20610;-69
2022/09/10 02:56:06;;;;;;;1.97;1.83;;;;;;;-144.22;100.00;60274.75;6091173;29;20255;-69
2022/09/10 02:59:10;;;;;;;2.17;1.90;;;;;;;-144.22;100.00;60274.75;6095710;29;20261;-69
2022/09/10 03:02:15;;;;;;;5.87;2.07;;;;;;;-144.22;100.00;60274.75;6085610;29;20239;-68
2022/09/10 03:05:17;;;;;;;5.93;2.00;;;;;;;-144.22;100.00;60274.75;6085095;29;20231;-69
2022/09/10 03:08:19;;;;;;;3.20;2.63;;;;;;;-144.22;100.00;60274.75;6085511;29;20246;-69
2022/09/10 03:11:26;;;;;;;3.17;2.20;;;;;;;-144.22;100.00;60274.75;6100455;29;20228;-69
2022/09/10 03:14:29;;;;;;;4.80;3.23;;;;;;;-144.22;100.00;60274.75;6100257;29;20223;-69
2022/09/10 03:17:31;;;;;;;6.00;3.03;;;;;;;-144.22;100.00;60274.75;6100366;29;20239;-69
2022/09/10 03:20:35;;;;;;;5.80;2.70;;;;;;;-144.22;100.00;60274.75;6101163;29;20239;-69
2022/09/10 03:23:39;;;;;;;5.37;2.70;;;;;;;-144.22;100.00;60274.75;6085458;29;20228;-69
2022/09/10 03:26:43;;;;;;;2.80;1.97;;;;;;;-144.22;100.00;60274.75;6100389;29;20227;-68
2022/09/10 03:29:46;;;;;;;2.50;1.90;;;;;;;-144.22;100.00;60274.75;6086477;29;20250;-69
2022/09/10 03:32:49;;;;;;;2.63;2.20;;;;;;;-144.22;100.00;60274.75;6100833;29;20633;-70
2022/09/10 03:35:53;;;;;;;2.00;1.80;;;;;;;-144.22;100.00;60274.75;6085425;29;20240;-69
2022/09/10 03:38:55;;;;;;;2.73;1.93;;;;;;;-144.22;100.00;60274.75;6085749;29;20703;-69
2022/09/10 03:41:57;;;;;;;3.60;2.27;;;;;;;-144.22;100.00;60274.75;6100064;29;20250;-69
2022/09/10 03:45:02;;;;;;;1.53;1.43;;;;;;;-144.22;100.00;60274.75;6099886;29;20253;-69
2022/09/10 03:48:04;;;;;;;2.53;1.40;;;;;;;-144.22;100.00;60274.75;6100208;29;20250;-68
2022/09/10 03:51:08;;;;;;;2.47;1.70;;;;;;;-144.22;100.00;60274.75;6085184;29;20224;-69
2022/09/10 03:54:10;;;;;;;2.90;1.30;;;;;;;-144.22;100.00;60274.75;6086105;29;20231;-69
2022/09/10 03:57:13;;;;;;;1.33;1.20;;;;;;;-144.22;100.00;60274.75;6099712;29;20219;-69
2022/09/10 04:00:15;;;;;;;2.80;1.20;;;;;;;-144.22;100.00;60274.75;6100361;29;20330;-69
2022/09/10 04:03:19;;;;;;;2.00;1.10;;;;;;;-144.22;100.00;60274.75;6099928;29;20232;-69
2022/09/10 04:06:21;;;;;;;2.83;1.20;;;;;;;-144.22;100.00;60274.75;6083498;29;20220;-69
2022/09/10 04:09:23;;;;;;;1.23;1.13;;;;;;;-144.22;100.00;60274.75;6100005;29;20227;-69
2022/09/10 04:12:25;;;;;;;1.57;1.10;;;;;;;-144.22;100.00;60274.75;6099995;29;20313;-69
2022/09/10 04:15:28;;;;;;;2.40;1.10;;;;;;;-144.22;100.00;60274.75;6099665;29;20228;-70
2022/09/10 04:18:33;;;;;;;2.60;1.37;;;;;;;-144.22;100.00;60274.75;6099605;29;20232;-69
2022/09/10 04:21:36;;;;;;;1.87;1.10;;;;;;;-144.22;100.00;60274.75;6100489;29;20466;-70
2022/09/10 04:24:39;;;;;;;1.97;1.40;;;;;;;-144.22;100.00;60274.75;6099461;29;20228;-70
2022/09/10 04:27:42;;;;;;;2.80;1.00;;;;;;;-144.22;100.00;60274.75;6100258;29;20232;-69
2022/09/10 04:30:44;;;;;;;1.93;0.97;;;;;;;-144.22;100.00;60274.75;6100043;29;20251;-70
2022/09/10 04:33:46;;;;;;;0.97;0.87;;;;;;;-144.22;100.00;60274.75;6099568;29;20235;-71
2022/09/10 04:36:52;;;;;;;1.10;1.00;;;;;;;-144.22;100.00;60274.75;6099246;29;20568;-70
2022/09/10 04:39:56;;;;;;;4.47;1.30;;;;;;;-144.22;100.00;60274.75;6099648;29;20243;-71
2022/09/10 04:42:58;;;;;;;1.37;1.27;;;;;;;-144.22;100.00;60274.75;6098787;29;20232;-71
2022/09/10 04:46:00;;;;;;;2.67;1.03;;;;;;;-144.22;100.00;60274.75;6085156;29;20268;-70
2022/09/10 04:49:04;;;;;;;1.90;1.40;;;;;;;-144.22;100.00;60274.75;6088612;29;20353;-71
2022/09/10 04:52:06;;;;;;;4.30;1.20;;;;;;;-144.22;100.00;60274.75;6092326;29;20242;-70
2022/09/10 04:55:09;;;;;;;1.53;1.30;;;;;;;-144.22;100.00;60274.75;6089450;29;20719;-70
2022/09/10 04:58:12;;;;;;;3.97;1.30;;;;;;;-144.22;100.00;60274.75;6103227;29;20439;-70
2022/09/10 05:01:16;;;;;;;2.60;1.47;;;;;;;-144.22;100.00;60274.75;6102353;29;20239;-70
2022/09/10 05:04:19;;;;;;;1.93;1.27;;;;;;;-144.22;100.00;60274.75;6104830;29;20231;-70
2022/09/10 05:07:22;;;;;;;2.00;1.40;;;;;;;-144.22;100.00;60274.75;6064350;29;20236;-70
2022/09/10 05:10:26;;;;;;;3.13;1.37;;;;;;;-144.22;100.00;60274.75;6098893;29;20239;-70
2022/09/10 05:13:30;;;;;;;2.47;1.20;;;;;;;-144.22;100.00;60274.75;6102313;29;20781;-70
2022/09/10 05:16:35;;;;;;;3.33;1.10;;;;;;;-144.22;100.00;60274.75;6102849;29;20738;-70
2022/09/10 05:19:37;;;;;;;2.67;1.00;;;;;;;-144.22;100.00;60274.75;6101648;29;20232;-71
2022/09/10 05:22:41;;;;;;;1.63;1.30;;;;;;;-144.22;100.00;60274.75;6086789;29;20699;-71
2022/09/10 05:25:44;;;;;;;1.90;1.07;;;;;;;-144.22;100.00;60274.75;6086282;29;20239;-71
2022/09/10 05:28:46;;;;;;;2.37;1.17;;;;;;;-144.22;100.00;60274.75;6102805;29;20231;-71
2022/09/10 05:31:49;;;;;;;2.60;1.43;;;;;;;-144.22;100.00;60274.75;6101667;29;20327;-71
2022/09/10 05:34:52;;;;;;;1.47;1.37;;;;;;;-144.22;100.00;60274.75;6102781;29;20458;-71
2022/09/10 05:37:56;;;;;;;2.17;1.40;;;;;;;-144.22;100.00;60274.75;6089118;29;20283;-70
2022/09/10 05:41:00;;;;;;;4.70;1.47;;;;;;;-144.22;100.00;60274.75;6102249;29;20232;-70
2022/09/10 05:44:02;;;;;;;3.10;1.63;;;;;;;-144.22;100.00;60274.75;6102037;29;20322;-70
2022/09/10 05:47:05;;;;;;;1.30;1.20;;;;;;;-144.22;100.00;60274.75;6083840;29;20358;-71
2022/09/10 05:50:08;;;;;;;4.03;1.43;;;;;;;-144.22;100.00;60274.75;6073103;29;20318;-72
2022/09/10 05:53:11;;;;;;;1.70;1.20;;;;;;;-144.22;100.00;60274.75;6087793;29;20318;-70
2022/09/10 05:56:13;;;;;;;3.53;1.30;;;;;;;-144.22;100.00;60274.75;6065877;29;20236;-70
2022/09/10 05:59:16;;;;;;;3.57;1.10;;;;;;;-144.22;100.00;60274.75;6085338;29;20232;-71
2022/09/10 06:02:25;;;;;;;1.50;1.37;;;;;;;-144.22;100.00;60274.75;6101231;29;20999;-71
2022/09/10 06:05:29;;;;;;;1.27;1.17;;;;;;;-144.22;100.00;60274.75;6092558;29;20716;-71
2022/09/10 06:08:31;;;;;;;1.30;1.20;;;;;;;-144.22;100.00;60274.75;6086468;29;20232;-71
2022/09/10 06:11:38;;;;;;;1.23;1.13;;;;;;;-144.22;100.00;60274.75;6100908;29;20306;-71
2022/09/10 06:14:40;;;;;;;1.20;0.93;;;;;;;-144.22;100.00;60274.75;6101571;29;20243;-70
2022/09/10 06:17:44;;;;;;;2.47;1.10;;;;;;;-144.22;100.00;60274.75;6086387;29;20263;-70
2022/09/10 06:20:47;;;;;;;1.30;0.93;;;;;;;-144.22;100.00;60274.75;6101278;29;20228;-72
2022/09/10 06:23:53;;;;;;;4.67;1.13;;;;;;;-144.22;100.00;60274.75;6101218;29;20583;-71
2022/09/10 06:26:58;;;;;;;4.73;1.00;;;;;;;-144.22;100.00;60274.75;6087964;29;20239;-71
2022/09/10 06:30:03;;;;;;;3.67;1.20;;;;;;;-144.22;100.00;60274.75;6101789;29;20773;-71
2022/09/10 06:33:06;;;;;;;2.47;1.20;;;;;;;-144.22;100.00;60274.75;6102199;29;20262;-70
2022/09/10 06:36:10;;;;;;;1.47;1.00;;;;;;;-144.22;100.00;60274.75;6102138;29;20215;-71
2022/09/10 06:39:13;;;;;;;3.33;1.23;;;;;;;-144.22;100.00;60274.75;6100332;29;20212;-69
2022/09/10 06:42:30;;;;;;;1.37;0.90;;;;;;;-144.22;100.00;60274.75;6101582;29;20228;-71
2022/09/10 06:45:54;;;;;;;0.80;0.70;;;;;;;-144.22;100.00;60274.75;6100711;29;20277;-71
2022/09/10 06:49:16;;;;;;;1.63;0.90;;;;;;;-144.22;100.00;60274.75;6089667;29;20745;-71
2022/09/10 06:52:21;;;;;;;1.63;0.97;;;;;;;-144.22;100.00;60274.75;6084093;29;20806;-70
2022/09/10 06:55:29;;;;;;;2.43;1.10;;;;;;;-144.22;100.00;60274.75;6100530;29;20589;-70
2022/09/10 06:58:35;;;;;;;1.13;0.83;;;;;;;-144.22;100.00;60274.75;6086120;29;20318;-71
2022/09/10 07:01:37;;;;;;;3.87;0.93;;;;;;;-144.22;100.00;60274.75;6085210;29;20786;-72
2022/09/10 07:04:40;;;;;;;1.10;0.60;;;;;;;-144.22;100.00;60274.75;6085646;29;20279;-72
2022/09/10 07:07:43;;;;;;;1.13;0.87;;;;;;;-144.22;100.00;60274.75;6100284;29;20231;-71
2022/09/10 07:10:46;;;;;;;0.67;0.50;;;;;;;-144.22;100.00;60274.75;6084973;29;20228;-71
2022/09/10 07:13:53;;;;;;;0.80;0.70;;;;;;;-144.22;100.00;60274.75;6081181;29;20459;-71
2022/09/10 07:17:01;;;;;;;3.27;0.67;;;;;;;-144.22;100.00;60274.75;6079513;29;20567;-71
2022/09/10 07:20:05;;;;;;;2.03;0.57;;;;;;;-144.22;100.00;60274.75;6075625;29;20225;-72
2022/09/10 07:23:17;;;;;;;1.83;0.87;;;;;;;-144.22;100.00;60274.75;6094648;28;20318;-71
2022/09/10 07:26:21;;;;;;;0.63;0.57;;;;;;;-144.22;100.00;60274.75;6067674;29;20228;-71
2022/09/10 07:29:29;;;;;;;5.57;1.00;;;;;;;-144.22;100.00;60274.75;6094589;29;20228;-71
2022/09/10 07:32:32;;;;;;;1.23;0.70;;;;;;;-144.22;100.00;60274.75;6079162;29;20246;-71
2022/09/10 07:35:41;;;;;;;1.27;0.70;;;;;;;-144.22;100.00;60274.75;6092080;29;20227;-71
2022/09/10 07:38:44;;;;;;;0.80;0.60;;;;;;;-144.22;100.00;60274.75;6097906;29;20230;-72
2022/09/10 07:41:46;;;;;;;0.73;0.50;;;;;;;-144.22;100.00;60274.75;6071988;29;20706;-71
2022/09/10 07:44:50;;;;;;;0.83;0.60;;;;;;;-144.22;100.00;60274.75;6086877;29;20363;-70
2022/09/10 07:47:53;;;;;;;1.67;0.53;;;;;;;-144.22;100.00;60274.75;6080908;29;20259;-72
2022/09/10 07:51:03;;;;;;;0.50;0.50;;;;;;;-144.22;100.00;60274.75;6092342;29;20294;-72
2022/09/10 07:54:05;;;;;;;2.97;0.60;;;;;;;-144.22;100.00;60274.75;6091883;29;20795;-72
2022/09/10 07:57:30;;;;;;;1.10;0.70;;;;;;;-144.22;100.00;60274.75;6080304;29;20230;-72
2022/09/10 08:00:33;;;;;;;1.70;0.70;;;;;;;-144.22;100.00;60274.75;6095578;29;20657;-72
2022/09/10 08:03:41;;;;;;;2.10;0.80;;;;;;;-144.22;100.00;60274.75;6073074;29;20221;-72
2022/09/10 08:06:46;;;;;;;1.80;0.63;;;;;;;-144.22;100.00;60274.75;6082813;29;20235;-72
2022/09/10 08:09:48;;;;;;;1.83;0.40;;;;;;;-144.22;100.00;60274.75;6082648;29;20224;-72
2022/09/10 08:12:52;;;;;;;0.83;0.67;;;;;;;-144.22;100.00;60274.75;6081840;29;20220;-72
2022/09/10 08:15:56;;;;;;;0.73;0.53;;;;;;;-144.22;100.00;60274.75;6083588;29;20599;-72
2022/09/10 08:19:01;;;;;;;0.80;0.60;;;;;;;-144.22;100.00;60274.75;6079170;29;20235;-71
2022/09/10 08:22:06;;;;;;;1.33;0.60;;;;;;;-144.22;100.00;60274.75;6079562;29;20630;-72
2022/09/10 08:25:19;;;;;;;1.03;0.50;;;;;;;-144.22;100.00;60274.75;6089065;29;20236;-71
2022/09/10 08:28:22;;;;;;;0.60;0.40;;;;;;;-144.22;100.00;60274.75;6098617;29;20234;-71
2022/09/10 08:31:27;;;;;;;0.40;0.33;;;;;;;-144.22;100.00;60274.75;6088328;28;20243;-71
2022/09/10 08:34:35;;;;;;;2.60;0.60;;;;;;;-144.22;100.00;60274.75;6077470;29;20236;-70
2022/09/10 08:37:41;;;;;;;1.33;0.40;;;;;;;-144.22;100.00;60274.75;6078112;29;20235;-70
2022/09/10 08:40:43;;;;;;;0.50;0.43;;;;;;;-144.22;100.00;60274.75;6096840;29;20244;-70
2022/09/10 08:44:32;;;;;;;2.60;0.60;;;;;;;-144.22;100.00;60274.75;6088354;29;20228;-70
2022/09/10 08:47:44;;;;;;;0.97;0.43;;;;;;;-144.22;100.00;60274.75;6013146;29;20321;-70
2022/09/10 08:51:14;;;;;;;1.60;0.80;;;;;;;-144.22;100.00;60274.75;6015564;29;20238;-69
2022/09/10 08:54:25;;;;;;;2.07;1.27;;;;;;;-144.22;100.00;60274.75;6006592;29;20676;-69
2022/09/10 08:57:46;;;;;;;1.07;0.83;;;;;;;-144.22;100.00;60274.75;5986764;29;20246;-70
2022/09/10 09:00:56;;;;;;;2.47;0.67;;;;;;;-144.22;100.00;60274.75;6001469;29;20245;-70
2022/09/10 09:04:08;;;;;;;0.90;0.60;;;;;;;-144.22;100.00;60274.75;6003648;29;20352;-70
2022/09/10 09:07:14;;;;;;;2.30;0.70;;;;;;;-144.22;100.00;60274.75;5998767;29;20328;-70
2022/09/10 09:10:24;;;;;;;1.03;0.50;;;;;;;-144.22;100.00;60274.75;5987601;29;20326;-69
2022/09/10 09:13:47;;;;;;;1.17;0.60;;;;;;;-144.22;100.00;60274.75;6002506;29;20238;-70
2022/09/10 09:16:52;;;;;;;0.97;0.40;;;;;;;-144.22;100.00;60274.75;6002343;29;20248;-69
2022/09/10 09:20:03;;;;;;;2.07;0.50;;;;;;;-144.22;100.00;60274.75;5999739;29;20317;-70
2022/09/10 09:23:20;;;;;;;1.53;0.50;;;;;;;-144.22;100.00;60274.75;6021357;29;20243;-69
2022/09/10 09:26:33;;;;;;;1.07;0.50;;;;;;;-144.22;100.00;60274.75;6073397;29;20346;-70
2022/09/10 09:30:01;;;;;;;1.70;0.47;;;;;;;-144.22;100.00;60274.75;6089767;29;20283;-69
2022/09/10 09:33:15;;;;;;;1.03;0.50;;;;;;;-144.22;100.00;60274.75;6090124;29;20263;-69
2022/09/10 09:36:25;;;;;;;4.27;0.93;;;;;;;-144.22;100.00;60274.75;6089129;29;20215;-70
2022/09/10 09:40:11;;;;;;;1.13;0.50;;;;;;;23.17;46.56;97578.09;6073138;29;20228;-69
2022/09/10 09:43:44;;;;;;;1.35;0.44;;;;;;;23.17;45.60;97565.47;5997269;29;10000511;-70
2022/09/10 09:46:48;;;;;;;2.47;0.50;;;;;;;-144.22;100.00;60274.75;5570911;29;10001763;-70
2022/09/10 09:49:50;;;;;;;1.40;0.50;;;;;;;-144.22;100.00;60274.75;6088282;29;20933;-69
2022/09/10 09:52:57;;;;;;;2.80;0.60;;;;;;;-144.22;100.00;60274.75;6090965;29;20291;-70
2022/09/10 09:56:03;;;;;;;1.20;0.50;;;;;;;-144.22;100.00;60274.75;6087408;29;20306;-70
2022/09/10 09:59:40;;;;;;;1.50;0.80;;;;;;;-144.22;100.00;60274.75;6076405;29;20247;-70
2022/09/10 10:02:43;;;;;;;0.88;0.65;;;;;;;-144.22;100.00;60274.75;6075025;29;20240;-71
2022/09/10 10:05:47;;;;;;;1.63;0.60;;;;;;;-144.22;100.00;60274.75;6085975;29;20729;-70
2022/09/10 10:08:56;;;;;;;1.88;0.50;;;;;;;24.08;44.86;97560.25;6069958;29;20227;-70
2022/09/10 10:12:06;;;;;;;1.50;0.55;;;;;;;23.69;45.37;97563.84;6078497;29;20220;-70
2022/09/10 10:15:35;;;;;;;0.88;0.32;;;;;;;23.39;43.38;97566.13;6086618;29;20236;-71
2022/09/10 10:18:37;;;;;;;1.87;0.60;;;;;;;23.24;45.44;97560.13;6083558;29;20232;-70
2022/09/10 10:21:39;;;;;;;0.38;0.30;;;;;;;23.72;44.94;97568.84;6099103;29;20239;-71
2022/09/10 10:24:42;;;;;;;1.92;0.35;;;;;;;-144.22;100.00;60274.75;6084290;29;20232;-70
2022/09/10 10:27:47;;;;;;;2.20;0.40;;;;;;;-144.22;100.00;60274.75;6078179;29;20231;-70
2022/09/10 10:30:59;;;;;;;3.95;0.70;;;;;;;24.02;40.25;97571.06;6080068;29;20236;-70
2022/09/10 10:34:14;;;;;;;1.00;0.50;;;;;;;-144.22;100.00;60274.75;6081910;29;20232;-70
2022/09/10 10:37:27;;;;;;;2.70;0.93;;;;;;;24.63;40.37;97560.72;6079030;29;20228;-71
2022/09/10 10:40:42;;;;;;;2.40;0.50;;;;;;;-144.22;100.00;60274.75;6089893;29;20546;-70
2022/09/10 10:44:25;;;;;;;1.42;0.50;;;;;;;24.46;43.23;97581.94;6076195;29;20242;-70
2022/09/10 10:47:42;;;;;;;0.40;0.40;;;;;;;23.52;44.17;97576.09;6072728;29;20244;-71
2022/09/10 10:50:56;;;;;;;1.88;0.60;;;;;;;23.09;46.16;97573.75;6070138;29;20237;-69
2022/09/10 10:54:29;;;;;;;1.33;0.40;;;;;;;23.43;46.60;97558.47;6088962;29;20699;-70
2022/09/10 10:57:53;;;;;;;1.40;0.38;;;;;;;24.01;44.64;97555.94;6086369;29;20200;-70
2022/09/10 11:01:02;;;;;;;1.03;0.70;;;;;;;24.02;44.06;97546.81;6079758;29;20217;-70
2022/09/10 11:04:18;;;;;;;1.85;0.90;;;;;;;-144.22;100.00;60274.75;6077357;29;20355;-70
2022/09/10 11:07:30;;;;;;;1.70;0.40;;;;;;;25.64;100.00;60274.75;6072736;29;20236;-70
2022/09/10 11:10:41;;;;;;;1.00;0.40;;;;;;;-144.22;100.00;60274.75;6078197;29;20232;-70
2022/09/10 11:13:54;;;;;;;0.87;0.33;;;;;;;-144.22;100.00;60274.75;5225224;29;10000705;-71
2022/09/10 11:17:04;;;;;;;0.80;0.47;;;;;;;-144.22;100.00;60274.75;6074112;29;20231;-71
2022/09/10 11:20:20;;;;;;;0.30;0.30;;;;;;;-144.22;100.00;60274.75;6091179;29;20841;-72
2022/09/10 11:23:50;;;;;;;1.67;0.55;;;;;;;-144.22;100.00;60274.75;6062711;29;20237;-72
2022/09/10 11:26:59;;;;;;;1.30;0.52;;;;;;;-144.22;100.00;60274.75;5225233;29;10000986;-70
2022/09/10 11:30:10;;;;;;;0.30;0.30;;;;;;;-144.22;100.00;60274.75;6084081;29;20244;-71
2022/09/10 11:33:29;;;;;;;0.80;0.43;;;;;;;-144.22;100.00;60274.75;6073801;29;20326;-70
2022/09/10 11:36:37;;;;;;;0.50;0.33;;;;;;;-144.22;100.00;60274.75;6075233;29;20248;-70
2022/09/10 11:39:46;;;;;;;2.58;0.70;;;;;;;-144.22;100.00;60274.75;6084447;29;20239;-70
2022/09/10 11:42:55;;;;;;;1.02;0.52;;;;;;;-144.22;100.00;60274.75;6087796;29;20240;-69
2022/09/10 11:46:01;;;;;;;2.72;0.57;;;;;;;-144.22;100.00;60274.75;6087298;29;20271;-70
2022/09/10 11:49:21;;;;;;;1.58;0.50;;;;;;;-144.22;100.00;60274.75;6085852;29;20232;-70
2022/09/10 11:52:24;;;;;;;1.65;0.70;;;;;;;-144.22;100.00;60274.75;6074804;29;20734;-71
2022/09/10 11:55:45;;;;;;;1.90;0.73;;;;;;;-144.22;100.00;60274.75;6077160;28;20235;-72
2022/09/10 11:59:04;;;;;;;1.48;0.40;;;;;;;24.61;40.38;97571.72;6074271;29;20727;-70
2022/09/10 12:02:31;;;;;;;3.08;0.50;;;;;;;23.94;41.01;97529.00;6075574;29;20245;-71
2022/09/10 12:06:01;;;;;;;3.95;0.70;;;;;;;23.46;42.48;97534.59;6082923;29;20228;-71
2022/09/10 12:09:12;;;;;;;2.00;0.50;;;;;;;23.19;43.74;97532.97;6080905;29;20311;-71
2022/09/10 12:12:40;;;;;;;2.13;0.57;;;;;;;23.21;44.16;97532.75;6093955;28;20211;-71
2022/09/10 12:16:21;;;;;;;1.70;0.50;;;;;;;23.08;43.44;97528.19;6093954;29;20235;-71
2022/09/10 12:19:53;;;;;;;1.17;0.60;;;;;;;22.92;44.93;97526.72;6080621;29;20236;-70
2022/09/10 12:22:56;;;;;;;2.30;0.63;;;;;;;23.02;45.33;97519.06;6068961;29;20247;-71
2022/09/10 12:26:06;;;;;;;0.43;0.43;;;;;;;22.85;45.73;97515.13;6082123;29;20243;-72
2022/09/10 12:29:26;;;;;;;1.17;0.67;;;;;;;23.10;46.81;97508.09;6080129;29;20712;-72
2022/09/10 12:32:29;;;;;;;1.43;0.70;;;;;;;23.05;45.67;97504.38;6075300;29;20248;-70
2022/09/10 12:35:34;;;;;;;0.60;0.40;;;;;;;23.45;45.25;97492.56;6094636;29;20224;-71
2022/09/10 12:38:54;;;;;;;1.07;0.57;;;;;;;23.14;44.24;97492.38;6080360;28;20220;-71
2022/09/10 12:42:02;;;;;;;0.50;0.30;;;;;;;23.18;44.50;97494.44;6068551;29;20730;-71
2022/09/10 12:45:07;;;;;;;0.70;0.57;;;;;;;23.77;44.06;97490.03;6085655;29;20223;-71
2022/09/10 12:48:16;;;;;;;1.60;0.47;;;;;;;-144.22;100.00;60274.75;6081268;29;20228;-70
2022/09/10 12:51:18;;;;;;;1.73;0.50;;;;;;;24.12;41.44;97506.75;6085609;29;20232;-70
2022/09/10 12:54:31;;;;;;;0.10;0.10;;;;;;;23.64;40.20;97515.16;6089685;29;20224;-71
2022/09/10 12:57:44;;;;;;;0.25;0.20;;;;;;;23.76;39.10;97499.97;6066371;29;20699;-70
2022/09/10 13:00:45;;;;;;;0.53;0.20;;;;;;;24.05;39.29;97501.38;6064749;29;20228;-70
2022/09/10 13:04:01;;;;;;;1.67;0.20;;;;;;;24.11;40.39;97505.91;6095606;29;20235;-70
2022/09/10 13:07:21;;;;;;;6.15;0.50;;;;;;;23.96;41.13;97489.16;6076277;29;20386;-69
2022/09/10 13:10:27;;;;;;;0.20;0.20;;;;;;;23.64;41.20;97482.00;6068199;29;20240;-70
2022/09/10 13:13:43;;;;;;;0.63;0.35;;;;;;;23.00;41.54;97474.56;6080663;29;20717;-70
2022/09/10 13:16:46;;;;;;;0.50;0.20;;;;;;;23.71;42.26;97463.94;6094213;29;20268;-70
2022/09/10 13:19:49;;;;;;;0.50;0.20;;;;;;;-144.22;100.00;60274.75;6075369;29;20234;-70
2022/09/10 13:23:02;;;;;;;0.30;0.30;;;;;;;-144.22;100.00;60274.75;6069091;29;20251;-70
2022/09/10 13:26:37;;;;;;;1.33;0.20;;;;;;;29.53;100.00;60274.75;6074588;29;20228;-70
2022/09/10 13:29:43;;;;;;;0.75;0.20;;;;;;;-144.22;100.00;60274.75;6076151;29;20231;-70
2022/09/10 13:33:04;;;;;;;1.38;0.30;;;;;;;-144.22;100.00;60274.75;6081423;29;20670;-71
2022/09/10 13:36:46;;;;;;;0.82;0.30;;;;;;;-144.22;100.00;60274.75;6075884;29;20247;-70
2022/09/10 13:40:00;;;;;;;0.25;0.20;;;;;;;-144.22;100.00;60274.75;6075110;29;20244;-70
2022/09/10 13:43:20;;;;;;;0.60;0.38;;;;;;;42.51;100.00;60274.75;6079190;29;20246;-70
2022/09/10 13:46:29;;;;;;;0.65;0.20;;;;;;;-144.22;100.00;60274.75;6092949;29;20700;-71
2022/09/10 13:49:53;;;;;;;0.25;0.20;;;;;;;-144.22;100.00;60274.75;6078879;29;20229;-70
2022/09/10 13:52:59;;;;;;;0.82;0.35;;;;;;;33.42;100.00;60274.75;6063850;29;20741;-70
2022/09/10 13:56:12;;;;;;;1.58;0.30;;;;;;;-144.22;100.00;60274.75;6075493;29;20224;-71
2022/09/10 13:59:25;;;;;;;0.82;0.30;;;;;;;-144.22;100.00;60274.75;6078906;29;20232;-71
2022/09/10 14:02:59;;;;;;;1.30;0.20;;;;;;;-144.22;100.00;60274.75;6070275;29;20617;-71
2022/09/10 14:06:07;;;;;;;0.28;0.22;;;;;;;-144.22;100.00;60274.75;6003997;29;20230;-70
2022/09/10 14:09:10;;;;;;;0.30;0.20;;;;;;;-144.22;100.00;60274.75;5992638;29;20225;-71
2022/09/10 14:12:14;;;;;;;1.80;0.40;;;;;;;-144.22;100.00;60274.75;6007002;29;20710;-70
2022/09/10 14:15:24;;;;;;;1.52;0.30;;;;;;;-144.22;100.00;60274.75;6008235;29;20749;-71
2022/09/10 14:18:36;;;;;;;0.60;0.45;;;;;;;-144.22;100.00;60274.75;6007216;29;20761;-70
2022/09/10 14:21:38;;;;;;;0.65;0.20;;;;;;;-144.22;100.00;60274.75;5986943;29;20241;-71
2022/09/10 14:24:47;;;;;;;0.77;0.20;;;;;;;-144.22;100.00;60274.75;5993141;29;20234;-71
2022/09/10 14:27:49;;;;;;;0.40;0.20;;;;;;;-144.22;100.00;60274.75;5998837;29;20710;-70